Terminal Aerodrome Forecast
Issued by NWS

Home | Current Version | Previous Version | Text Only | Print | Product List | Glossary On
Versions: 1 2 3 4 5 6 7 8 9 10 11 12 13 14 15 16 17 18 19 20 21 22 23
000
FTUS44 KBMX 211526 AAA
TAFTOI
TAF AMD
KTOI 211526Z 2115/2212 10009KT P6SM VCSH OVC015
     FM211700 10009KT P6SM VCTS BKN025CB BKN050
     FM211900 10009KT P6SM TSRA BKN030CB OVC050
     FM220000 11007KT P6SM SHRA VCTS BKN030CB OVC100
     FM220600 13004KT 4SM BR OVC007=

USA.gov is the U.S. government's official web portal to all federal, state and local government web resources and services.